sensor_id;sensor_type;location;lat;lon;timestamp;pressure;altitude;pressure_sealevel;temperature;humidity
58785;BME280;44557;51.862;19.378;2022-07-29T00:00:42;99643.48;;;19.31;49.46
58785;BME280;44557;51.862;19.378;2022-07-29T00:01:46;99647.48;;;19.36;49.34
58785;BME280;44557;51.862;19.378;2022-07-29T00:02:48;99648.29;;;19.37;49.19
58785;BME280;44557;51.862;19.378;2022-07-29T00:03:49;99650.52;;;19.35;49.21
58785;BME280;44557;51.862;19.378;2022-07-29T00:04:51;99650.73;;;19.27;49.71
58785;BME280;44557;51.862;19.378;2022-07-29T00:05:53;99654.64;;;19.25;49.52
58785;BME280;44557;51.862;19.378;2022-07-29T00:06:54;99653.31;;;19.33;49.30
58785;BME280;44557;51.862;19.378;2022-07-29T00:07:56;99651.95;;;19.35;49.30
58785;BME280;44557;51.862;19.378;2022-07-29T00:08:57;99649.70;;;19.30;49.25
58785;BME280;44557;51.862;19.378;2022-07-29T00:09:59;99654.33;;;19.26;49.63
58785;BME280;44557;51.862;19.378;2022-07-29T00:11:01;99655.69;;;19.24;49.92
58785;BME280;44557;51.862;19.378;2022-07-29T00:12:03;99651.77;;;19.19;49.67
58785;BME280;44557;51.862;19.378;2022-07-29T00:13:05;99651.52;;;19.15;49.94
58785;BME280;44557;51.862;19.378;2022-07-29T00:14:07;99650.30;;;19.08;50.26
58785;BME280;44557;51.862;19.378;2022-07-29T00:15:09;99651.82;;;19.05;50.22
58785;BME280;44557;51.862;19.378;2022-07-29T00:16:10;99651.82;;;19.07;50.14
58785;BME280;44557;51.862;19.378;2022-07-29T00:17:12;99654.27;;;19.04;50.25
58785;BME280;44557;51.862;19.378;2022-07-29T00:18:13;99652.05;;;19.11;50.21
58785;BME280;44557;51.862;19.378;2022-07-29T00:19:15;99654.92;;;19.08;50.14
58785;BME280;44557;51.862;19.378;2022-07-29T00:20:16;99652.77;;;19.11;50.30
58785;BME280;44557;51.862;19.378;2022-07-29T00:21:18;99650.88;;;19.11;50.19
58785;BME280;44557;51.862;19.378;2022-07-29T00:22:20;99653.67;;;19.21;49.99
58785;BME280;44557;51.862;19.378;2022-07-29T00:23:21;99652.34;;;19.31;49.81
58785;BME280;44557;51.862;19.378;2022-07-29T00:24:23;99658.39;;;19.27;50.00
58785;BME280;44557;51.862;19.378;2022-07-29T00:25:24;99659.27;;;19.25;49.76
58785;BME280;44557;51.862;19.378;2022-07-29T00:26:26;99658.56;;;19.28;50.00
58785;BME280;44557;51.862;19.378;2022-07-29T00:27:32;99661.10;;;19.21;49.89
58785;BME280;44557;51.862;19.378;2022-07-29T00:28:34;99662.11;;;19.11;50.02
58785;BME280;44557;51.862;19.378;2022-07-29T00:29:35;99664.14;;;19.24;49.68
58785;BME280;44557;51.862;19.378;2022-07-29T00:30:37;99663.96;;;19.14;50.02
58785;BME280;44557;51.862;19.378;2022-07-29T00:31:38;99665.44;;;18.98;50.47
58785;BME280;44557;51.862;19.378;2022-07-29T00:32:40;99663.95;;;19.04;50.44
58785;BME280;44557;51.862;19.378;2022-07-29T00:33:41;99662.76;;;19.08;50.39
58785;BME280;44557;51.862;19.378;2022-07-29T00:34:43;99659.88;;;19.11;50.57
58785;BME280;44557;51.862;19.378;2022-07-29T00:36:03;99662.42;;;19.07;50.50
58785;BME280;44557;51.862;19.378;2022-07-29T00:37:05;99664.73;;;18.99;50.86
58785;BME280;44557;51.862;19.378;2022-07-29T00:38:06;99662.64;;;18.97;50.83
58785;BME280;44557;51.862;19.378;2022-07-29T00:39:08;99661.85;;;18.95;50.73
58785;BME280;44557;51.862;19.378;2022-07-29T00:40:10;99663.84;;;18.96;50.55
58785;BME280;44557;51.862;19.378;2022-07-29T00:41:12;99667.83;;;19.00;50.51
58785;BME280;44557;51.862;19.378;2022-07-29T00:42:13;99659.73;;;19.13;50.01
58785;BME280;44557;51.862;19.378;2022-07-29T00:43:17;99660.30;;;19.19;49.96
58785;BME280;44557;51.862;19.378;2022-07-29T00:44:18;99664.41;;;19.04;50.79
58785;BME280;44557;51.862;19.378;2022-07-29T00:45:20;99662.95;;;18.93;51.03
58785;BME280;44557;51.862;19.378;2022-07-29T00:46:23;99663.86;;;19.03;51.02
58785;BME280;44557;51.862;19.378;2022-07-29T00:47:24;99664.23;;;18.94;50.98
58785;BME280;44557;51.862;19.378;2022-07-29T00:48:26;99660.86;;;18.91;51.29
58785;BME280;44557;51.862;19.378;2022-07-29T00:49:28;99661.81;;;18.85;51.33
58785;BME280;44557;51.862;19.378;2022-07-29T00:50:29;99663.56;;;18.87;51.34
58785;BME280;44557;51.862;19.378;2022-07-29T00:51:31;99663.52;;;18.93;50.84
58785;BME280;44557;51.862;19.378;2022-07-29T00:52:36;99660.70;;;18.90;51.46
58785;BME280;44557;51.862;19.378;2022-07-29T00:53:38;99662.64;;;18.96;51.35
58785;BME280;44557;51.862;19.378;2022-07-29T00:54:40;99662.79;;;18.88;51.58
58785;BME280;44557;51.862;19.378;2022-07-29T00:55:41;99661.90;;;18.87;51.82
58785;BME280;44557;51.862;19.378;2022-07-29T00:56:43;99662.81;;;18.76;52.44
58785;BME280;44557;51.862;19.378;2022-07-29T00:57:45;99664.11;;;18.84;52.09
58785;BME280;44557;51.862;19.378;2022-07-29T00:58:48;99667.99;;;18.76;52.47
58785;BME280;44557;51.862;19.378;2022-07-29T00:59:51;99665.58;;;18.66;52.86
58785;BME280;44557;51.862;19.378;2022-07-29T01:00:53;99665.80;;;18.64;52.36
58785;BME280;44557;51.862;19.378;2022-07-29T01:01:55;99663.08;;;18.79;51.82
58785;BME280;44557;51.862;19.378;2022-07-29T01:02:56;99667.42;;;18.72;52.44
58785;BME280;44557;51.862;19.378;2022-07-29T01:03:58;99664.86;;;18.67;52.35
58785;BME280;44557;51.862;19.378;2022-07-29T01:05:01;99667.67;;;18.54;52.25
58785;BME280;44557;51.862;19.378;2022-07-29T01:06:03;99668.45;;;18.51;52.76
58785;BME280;44557;51.862;19.378;2022-07-29T01:07:06;99669.08;;;18.47;52.51
58785;BME280;44557;51.862;19.378;2022-07-29T01:08:08;99669.43;;;18.53;51.94
58785;BME280;44557;51.862;19.378;2022-07-29T01:09:12;99665.39;;;18.59;51.73
58785;BME280;44557;51.862;19.378;2022-07-29T01:10:16;99670.23;;;18.43;52.14
58785;BME280;44557;51.862;19.378;2022-07-29T01:11:19;99665.95;;;18.31;52.26
58785;BME280;44557;51.862;19.378;2022-07-29T01:12:23;99669.71;;;18.36;52.03
58785;BME280;44557;51.862;19.378;2022-07-29T01:13:26;99665.25;;;18.47;52.04
58785;BME280;44557;51.862;19.378;2022-07-29T01:14:28;99665.83;;;18.50;51.96
58785;BME280;44557;51.862;19.378;2022-07-29T01:15:30;99662.48;;;18.46;52.31
58785;BME280;44557;51.862;19.378;2022-07-29T01:16:32;99663.93;;;18.52;52.17
58785;BME280;44557;51.862;19.378;2022-07-29T01:18:07;99666.16;;;18.51;52.29
58785;BME280;44557;51.862;19.378;2022-07-29T01:20:41;99665.69;;;18.55;52.87
58785;BME280;44557;51.862;19.378;2022-07-29T01:21:55;99663.41;;;18.46;53.46
58785;BME280;44557;51.862;19.378;2022-07-29T01:25:44;99664.36;;;18.33;54.44
58785;BME280;44557;51.862;19.378;2022-07-29T01:29:11;99658.41;;;17.97;56.43
58785;BME280;44557;51.862;19.378;2022-07-29T01:30:14;99661.91;;;17.97;56.51
58785;BME280;44557;51.862;19.378;2022-07-29T01:31:20;99660.50;;;18.01;56.32
58785;BME280;44557;51.862;19.378;2022-07-29T01:32:29;99659.98;;;18.07;55.82
58785;BME280;44557;51.862;19.378;2022-07-29T01:33:39;99657.58;;;17.91;56.28
58785;BME280;44557;51.862;19.378;2022-07-29T01:35:16;99657.23;;;17.78;56.51
58785;BME280;44557;51.862;19.378;2022-07-29T01:36:47;99657.20;;;17.60;57.41
58785;BME280;44557;51.862;19.378;2022-07-29T01:38:09;99658.98;;;17.57;57.45
58785;BME280;44557;51.862;19.378;2022-07-29T01:39:20;99658.14;;;17.61;57.13
58785;BME280;44557;51.862;19.378;2022-07-29T01:40:49;99660.58;;;17.76;56.83
58785;BME280;44557;51.862;19.378;2022-07-29T01:43:56;99656.27;;;17.87;56.38
58785;BME280;44557;51.862;19.378;2022-07-29T01:45:15;99659.33;;;17.69;56.75
58785;BME280;44557;51.862;19.378;2022-07-29T01:46:25;99657.36;;;17.52;57.34
58785;BME280;44557;51.862;19.378;2022-07-29T01:47:58;99657.96;;;17.49;57.54
58785;BME280;44557;51.862;19.378;2022-07-29T01:49:02;99656.77;;;17.33;58.06
58785;BME280;44557;51.862;19.378;2022-07-29T01:50:11;99658.77;;;17.33;57.92
58785;BME280;44557;51.862;19.378;2022-07-29T01:51:41;99660.75;;;17.26;58.10
58785;BME280;44557;51.862;19.378;2022-07-29T01:52:52;99660.97;;;17.31;57.86
58785;BME280;44557;51.862;19.378;2022-07-29T01:54:03;99665.66;;;17.16;58.27
58785;BME280;44557;51.862;19.378;2022-07-29T01:55:10;99662.54;;;17.29;58.06
58785;BME280;44557;51.862;19.378;2022-07-29T01:56:17;99659.98;;;17.19;58.07
58785;BME280;44557;51.862;19.378;2022-07-29T01:57:26;99662.86;;;17.20;58.21
58785;BME280;44557;51.862;19.378;2022-07-29T01:58:31;99666.91;;;17.12;58.37
58785;BME280;44557;51.862;19.378;2022-07-29T01:59:34;99660.02;;;17.16;58.46
58785;BME280;44557;51.862;19.378;2022-07-29T02:00:39;99660.52;;;17.18;58.40
58785;BME280;44557;51.862;19.378;2022-07-29T02:01:42;99661.52;;;17.23;58.29
58785;BME280;44557;51.862;19.378;2022-07-29T02:02:47;99663.05;;;17.08;58.54
58785;BME280;44557;51.862;19.378;2022-07-29T02:03:51;99661.67;;;16.98;58.77
58785;BME280;44557;51.862;19.378;2022-07-29T02:04:54;99666.70;;;16.93;58.98
58785;BME280;44557;51.862;19.378;2022-07-29T02:05:58;99664.31;;;17.06;58.61
58785;BME280;44557;51.862;19.378;2022-07-29T02:07:05;99663.25;;;17.12;58.56
58785;BME280;44557;51.862;19.378;2022-07-29T02:08:08;99666.27;;;17.04;58.95
58785;BME280;44557;51.862;19.378;2022-07-29T02:09:12;99663.13;;;17.09;58.67
58785;BME280;44557;51.862;19.378;2022-07-29T02:10:18;99662.13;;;17.03;59.00
58785;BME280;44557;51.862;19.378;2022-07-29T02:11:21;99660.60;;;17.02;58.89
58785;BME280;44557;51.862;19.378;2022-07-29T02:12:24;99661.01;;;17.03;58.80
58785;BME280;44557;51.862;19.378;2022-07-29T02:13:28;99662.36;;;17.01;58.96
58785;BME280;44557;51.862;19.378;2022-07-29T02:14:34;99659.23;;;17.00;58.93
58785;BME280;44557;51.862;19.378;2022-07-29T02:15:38;99658.16;;;16.90;59.26
58785;BME280;44557;51.862;19.378;2022-07-29T02:16:43;99661.13;;;16.92;59.15
58785;BME280;44557;51.862;19.378;2022-07-29T02:17:56;99662.45;;;16.89;59.16
58785;BME280;44557;51.862;19.378;2022-07-29T02:19:01;99658.16;;;16.90;59.31
58785;BME280;44557;51.862;19.378;2022-07-29T02:20:03;99660.36;;;16.87;59.37
58785;BME280;44557;51.862;19.378;2022-07-29T02:21:07;99660.53;;;16.87;59.19
58785;BME280;44557;51.862;19.378;2022-07-29T02:22:09;99659.25;;;16.79;59.33
58785;BME280;44557;51.862;19.378;2022-07-29T02:23:14;99657.44;;;16.82;59.48
58785;BME280;44557;51.862;19.378;2022-07-29T02:24:19;99656.11;;;16.77;59.57
58785;BME280;44557;51.862;19.378;2022-07-29T02:25:23;99652.70;;;16.71;59.80
58785;BME280;44557;51.862;19.378;2022-07-29T02:26:26;99655.51;;;16.73;59.71
58785;BME280;44557;51.862;19.378;2022-07-29T02:27:30;99651.81;;;16.69;59.69
58785;BME280;44557;51.862;19.378;2022-07-29T02:28:34;99649.83;;;16.62;60.08
58785;BME280;44557;51.862;19.378;2022-07-29T02:29:37;99643.73;;;16.65;59.78
58785;BME280;44557;51.862;19.378;2022-07-29T02:30:41;99645.14;;;16.70;59.63
58785;BME280;44557;51.862;19.378;2022-07-29T02:31:45;99640.48;;;16.65;59.81
58785;BME280;44557;51.862;19.378;2022-07-29T02:32:49;99640.61;;;16.63;59.66
58785;BME280;44557;51.862;19.378;2022-07-29T02:33:52;99642.46;;;16.65;59.72
58785;BME280;44557;51.862;19.378;2022-07-29T02:34:56;99640.58;;;16.60;59.94
58785;BME280;44557;51.862;19.378;2022-07-29T02:35:59;99640.20;;;16.69;59.63
58785;BME280;44557;51.862;19.378;2022-07-29T02:37:03;99639.43;;;16.64;59.49
58785;BME280;44557;51.862;19.378;2022-07-29T02:38:06;99639.77;;;16.73;59.34
58785;BME280;44557;51.862;19.378;2022-07-29T02:39:29;99639.54;;;16.74;59.21
58785;BME280;44557;51.862;19.378;2022-07-29T02:40:34;99639.73;;;16.69;59.25
58785;BME280;44557;51.862;19.378;2022-07-29T02:42:02;99641.70;;;16.75;58.95
58785;BME280;44557;51.862;19.378;2022-07-29T02:43:06;99641.36;;;16.81;58.63
58785;BME280;44557;51.862;19.378;2022-07-29T02:44:16;99640.92;;;16.91;58.45
58785;BME280;44557;51.862;19.378;2022-07-29T02:45:19;99641.75;;;16.79;58.59
58785;BME280;44557;51.862;19.378;2022-07-29T02:46:31;99639.17;;;16.84;58.69
58785;BME280;44557;51.862;19.378;2022-07-29T02:47:41;99638.36;;;16.83;58.73
58785;BME280;44557;51.862;19.378;2022-07-29T02:48:50;99641.02;;;16.85;58.67
58785;BME280;44557;51.862;19.378;2022-07-29T02:51:06;99639.80;;;16.83;58.84
58785;BME280;44557;51.862;19.378;2022-07-29T02:52:26;99637.79;;;16.73;59.17
58785;BME280;44557;51.862;19.378;2022-07-29T02:53:33;99638.91;;;16.73;58.94
58785;BME280;44557;51.862;19.378;2022-07-29T02:55:29;99640.95;;;16.80;58.79
58785;BME280;44557;51.862;19.378;2022-07-29T02:56:33;99635.95;;;16.72;59.09
58785;BME280;44557;51.862;19.378;2022-07-29T02:57:44;99634.68;;;16.73;59.16
58785;BME280;44557;51.862;19.378;2022-07-29T02:58:54;99636.27;;;16.71;59.16
58785;BME280;44557;51.862;19.378;2022-07-29T02:59:59;99635.29;;;16.77;59.16
58785;BME280;44557;51.862;19.378;2022-07-29T03:01:11;99631.88;;;16.70;59.10
58785;BME280;44557;51.862;19.378;2022-07-29T03:02:15;99632.30;;;16.66;59.23
58785;BME280;44557;51.862;19.378;2022-07-29T03:03:20;99634.41;;;16.69;59.31
58785;BME280;44557;51.862;19.378;2022-07-29T03:04:24;99632.26;;;16.69;59.17
58785;BME280;44557;51.862;19.378;2022-07-29T03:05:27;99639.17;;;16.76;58.86
58785;BME280;44557;51.862;19.378;2022-07-29T03:06:29;99636.55;;;16.69;59.22
58785;BME280;44557;51.862;19.378;2022-07-29T03:07:33;99640.23;;;16.71;58.99
58785;BME280;44557;51.862;19.378;2022-07-29T03:08:36;99637.42;;;16.77;58.61
58785;BME280;44557;51.862;19.378;2022-07-29T03:09:38;99639.09;;;16.76;58.80
58785;BME280;44557;51.862;19.378;2022-07-29T03:10:43;99636.17;;;16.79;58.56
58785;BME280;44557;51.862;19.378;2022-07-29T03:11:47;99636.27;;;16.80;58.50
58785;BME280;44557;51.862;19.378;2022-07-29T03:12:49;99635.05;;;16.78;58.50
58785;BME280;44557;51.862;19.378;2022-07-29T03:13:51;99637.63;;;16.81;58.80
58785;BME280;44557;51.862;19.378;2022-07-29T03:14:53;99635.89;;;16.90;58.34
58785;BME280;44557;51.862;19.378;2022-07-29T03:15:56;99637.47;;;16.96;58.19
58785;BME280;44557;51.862;19.378;2022-07-29T03:16:59;99636.48;;;16.86;58.64
58785;BME280;44557;51.862;19.378;2022-07-29T03:18:02;99636.88;;;16.78;59.24
58785;BME280;44557;51.862;19.378;2022-07-29T03:19:04;99635.30;;;16.79;59.25
58785;BME280;44557;51.862;19.378;2022-07-29T03:20:09;99635.23;;;16.72;59.59
58785;BME280;44557;51.862;19.378;2022-07-29T03:21:11;99634.37;;;16.74;59.52
58785;BME280;44557;51.862;19.378;2022-07-29T03:22:13;99632.95;;;16.74;59.53
58785;BME280;44557;51.862;19.378;2022-07-29T03:23:19;99629.40;;;16.69;59.76
58785;BME280;44557;51.862;19.378;2022-07-29T03:24:30;99630.33;;;16.67;59.68
58785;BME280;44557;51.862;19.378;2022-07-29T03:25:32;99630.91;;;16.62;59.80
58785;BME280;44557;51.862;19.378;2022-07-29T03:26:33;99628.23;;;16.52;60.03
58785;BME280;44557;51.862;19.378;2022-07-29T03:27:35;99628.13;;;16.55;59.94
58785;BME280;44557;51.862;19.378;2022-07-29T03:28:37;99631.43;;;16.53;59.97
58785;BME280;44557;51.862;19.378;2022-07-29T03:29:38;99629.56;;;16.56;59.66
58785;BME280;44557;51.862;19.378;2022-07-29T03:30:40;99631.75;;;16.59;59.46
58785;BME280;44557;51.862;19.378;2022-07-29T03:31:41;99630.85;;;16.64;59.57
58785;BME280;44557;51.862;19.378;2022-07-29T03:32:43;99630.67;;;16.63;59.43
58785;BME280;44557;51.862;19.378;2022-07-29T03:33:45;99635.64;;;16.66;59.29
58785;BME280;44557;51.862;19.378;2022-07-29T03:34:46;99633.80;;;16.64;59.38
58785;BME280;44557;51.862;19.378;2022-07-29T03:35:48;99632.95;;;16.61;59.60
58785;BME280;44557;51.862;19.378;2022-07-29T03:36:50;99630.85;;;16.64;59.46
58785;BME280;44557;51.862;19.378;2022-07-29T03:37:51;99631.74;;;16.60;59.64
58785;BME280;44557;51.862;19.378;2022-07-29T03:38:53;99632.05;;;16.59;59.78
58785;BME280;44557;51.862;19.378;2022-07-29T03:39:57;99631.44;;;16.60;59.69
58785;BME280;44557;51.862;19.378;2022-07-29T03:41:04;99634.44;;;16.65;59.52
58785;BME280;44557;51.862;19.378;2022-07-29T03:42:08;99632.88;;;16.61;59.80
58785;BME280;44557;51.862;19.378;2022-07-29T03:43:12;99634.32;;;16.62;59.51
58785;BME280;44557;51.862;19.378;2022-07-29T03:44:16;99640.20;;;16.56;59.82
58785;BME280;44557;51.862;19.378;2022-07-29T03:45:19;99640.91;;;16.61;59.92
58785;BME280;44557;51.862;19.378;2022-07-29T03:46:23;99643.78;;;16.62;59.70
58785;BME280;44557;51.862;19.378;2022-07-29T03:47:28;99644.33;;;16.61;59.66
58785;BME280;44557;51.862;19.378;2022-07-29T03:48:33;99647.77;;;16.71;59.42
58785;BME280;44557;51.862;19.378;2022-07-29T03:49:37;99646.40;;;16.75;59.40
58785;BME280;44557;51.862;19.378;2022-07-29T03:50:40;99650.91;;;16.82;59.12
58785;BME280;44557;51.862;19.378;2022-07-29T03:51:42;99646.21;;;16.80;59.21
58785;BME280;44557;51.862;19.378;2022-07-29T03:52:44;99650.11;;;16.81;59.25
58785;BME280;44557;51.862;19.378;2022-07-29T03:53:46;99645.26;;;16.72;59.42
58785;BME280;44557;51.862;19.378;2022-07-29T03:54:48;99646.36;;;16.80;59.44
58785;BME280;44557;51.862;19.378;2022-07-29T03:55:54;99646.89;;;16.84;59.17
58785;BME280;44557;51.862;19.378;2022-07-29T03:56:59;99645.11;;;16.76;59.28
58785;BME280;44557;51.862;19.378;2022-07-29T03:58:03;99648.38;;;16.68;59.77
58785;BME280;44557;51.862;19.378;2022-07-29T03:59:05;99649.64;;;16.75;59.44
58785;BME280;44557;51.862;19.378;2022-07-29T04:00:08;99648.41;;;16.71;59.66
58785;BME280;44557;51.862;19.378;2022-07-29T04:01:11;99649.52;;;16.64;59.75
58785;BME280;44557;51.862;19.378;2022-07-29T04:02:14;99652.73;;;16.81;59.38
58785;BME280;44557;51.862;19.378;2022-07-29T04:03:16;99651.98;;;16.83;59.05
58785;BME280;44557;51.862;19.378;2022-07-29T04:04:17;99654.15;;;16.87;59.13
58785;BME280;44557;51.862;19.378;2022-07-29T04:05:19;99658.05;;;16.94;58.80
58785;BME280;44557;51.862;19.378;2022-07-29T04:06:20;99657.50;;;17.02;58.57
58785;BME280;44557;51.862;19.378;2022-07-29T04:07:22;99661.75;;;16.98;58.78
58785;BME280;44557;51.862;19.378;2022-07-29T04:08:23;99663.81;;;16.97;58.76
58785;BME280;44557;51.862;19.378;2022-07-29T04:09:25;99666.40;;;17.02;58.63
58785;BME280;44557;51.862;19.378;2022-07-29T04:10:27;99664.23;;;17.08;58.47
58785;BME280;44557;51.862;19.378;2022-07-29T04:11:28;99668.14;;;17.09;58.45
58785;BME280;44557;51.862;19.378;2022-07-29T04:12:30;99666.19;;;17.20;58.19
58785;BME280;44557;51.862;19.378;2022-07-29T04:13:32;99664.40;;;17.25;57.79
58785;BME280;44557;51.862;19.378;2022-07-29T04:14:34;99659.30;;;17.23;58.08
58785;BME280;44557;51.862;19.378;2022-07-29T04:15:36;99664.45;;;17.21;57.60
58785;BME280;44557;51.862;19.378;2022-07-29T04:16:37;99664.30;;;17.21;57.89
58785;BME280;44557;51.862;19.378;2022-07-29T04:17:39;99662.10;;;17.25;57.75
58785;BME280;44557;51.862;19.378;2022-07-29T04:18:40;99665.18;;;17.23;57.79
58785;BME280;44557;51.862;19.378;2022-07-29T04:19:42;99663.17;;;17.30;57.52
58785;BME280;44557;51.862;19.378;2022-07-29T04:20:43;99664.43;;;17.37;57.71
58785;BME280;44557;51.862;19.378;2022-07-29T04:21:45;99664.71;;;17.41;57.54
58785;BME280;44557;51.862;19.378;2022-07-29T04:22:46;99663.70;;;17.35;57.49
58785;BME280;44557;51.862;19.378;2022-07-29T04:23:48;99662.20;;;17.37;57.40
58785;BME280;44557;51.862;19.378;2022-07-29T04:24:51;99665.04;;;17.33;57.53
58785;BME280;44557;51.862;19.378;2022-07-29T04:25:52;99661.98;;;17.39;57.43
58785;BME280;44557;51.862;19.378;2022-07-29T04:26:54;99664.38;;;17.40;57.30
58785;BME280;44557;51.862;19.378;2022-07-29T04:27:56;99665.61;;;17.44;57.50
58785;BME280;44557;51.862;19.378;2022-07-29T04:29:04;99663.62;;;17.49;57.77
58785;BME280;44557;51.862;19.378;2022-07-29T04:30:06;99664.15;;;17.55;57.54
58785;BME280;44557;51.862;19.378;2022-07-29T04:31:09;99661.81;;;17.51;57.74
58785;BME280;44557;51.862;19.378;2022-07-29T04:32:10;99665.30;;;17.51;57.66
58785;BME280;44557;51.862;19.378;2022-07-29T04:33:12;99662.81;;;17.58;57.30
58785;BME280;44557;51.862;19.378;2022-07-29T04:34:14;99664.63;;;17.56;57.91
58785;BME280;44557;51.862;19.378;2022-07-29T04:35:16;99666.36;;;17.63;57.82
58785;BME280;44557;51.862;19.378;2022-07-29T04:36:17;99668.83;;;17.55;57.58
58785;BME280;44557;51.862;19.378;2022-07-29T04:37:19;99666.80;;;17.59;57.44
58785;BME280;44557;51.862;19.378;2022-07-29T04:38:20;99668.79;;;17.58;57.26
58785;BME280;44557;51.862;19.378;2022-07-29T04:39:23;99666.18;;;17.60;57.53
58785;BME280;44557;51.862;19.378;2022-07-29T04:40:25;99665.61;;;17.58;57.07
58785;BME280;44557;51.862;19.378;2022-07-29T04:41:28;99665.20;;;17.57;57.35
58785;BME280;44557;51.862;19.378;2022-07-29T04:42:29;99669.53;;;17.60;57.30
58785;BME280;44557;51.862;19.378;2022-07-29T04:43:31;99666.66;;;17.61;57.11
58785;BME280;44557;51.862;19.378;2022-07-29T04:44:32;99665.15;;;17.60;57.12
58785;BME280;44557;51.862;19.378;2022-07-29T04:45:34;99666.56;;;17.58;57.22
58785;BME280;44557;51.862;19.378;2022-07-29T04:46:36;99667.33;;;17.65;56.96
58785;BME280;44557;51.862;19.378;2022-07-29T04:47:38;99670.16;;;17.70;57.22
58785;BME280;44557;51.862;19.378;2022-07-29T04:48:39;99670.21;;;17.68;57.13
58785;BME280;44557;51.862;19.378;2022-07-29T04:49:41;99669.58;;;17.77;56.47
58785;BME280;44557;51.862;19.378;2022-07-29T04:50:42;99671.84;;;17.81;56.76
58785;BME280;44557;51.862;19.378;2022-07-29T04:51:44;99672.78;;;17.69;56.56
58785;BME280;44557;51.862;19.378;2022-07-29T04:52:45;99668.90;;;17.71;56.89
58785;BME280;44557;51.862;19.378;2022-07-29T04:53:47;99673.08;;;17.76;56.77
58785;BME280;44557;51.862;19.378;2022-07-29T04:54:49;99671.05;;;17.73;56.78
58785;BME280;44557;51.862;19.378;2022-07-29T04:55:50;99670.55;;;17.78;56.83
58785;BME280;44557;51.862;19.378;2022-07-29T04:56:52;99668.73;;;17.82;56.79
58785;BME280;44557;51.862;19.378;2022-07-29T04:57:54;99668.65;;;17.91;56.50
58785;BME280;44557;51.862;19.378;2022-07-29T04:58:55;99663.64;;;17.91;56.18
58785;BME280;44557;51.862;19.378;2022-07-29T04:59:57;99665.70;;;17.90;56.56
58785;BME280;44557;51.862;19.378;2022-07-29T05:00:59;99661.91;;;17.97;56.10
58785;BME280;44557;51.862;19.378;2022-07-29T05:02:01;99663.77;;;17.89;56.30
58785;BME280;44557;51.862;19.378;2022-07-29T05:03:03;99668.42;;;17.93;56.05
58785;BME280;44557;51.862;19.378;2022-07-29T05:04:05;99664.55;;;17.97;56.38
58785;BME280;44557;51.862;19.378;2022-07-29T05:05:07;99662.88;;;17.98;55.94
58785;BME280;44557;51.862;19.378;2022-07-29T05:06:09;99665.31;;;17.91;56.18
58785;BME280;44557;51.862;19.378;2022-07-29T05:07:10;99668.26;;;17.90;56.29
58785;BME280;44557;51.862;19.378;2022-07-29T05:08:12;99667.52;;;17.89;56.00
58785;BME280;44557;51.862;19.378;2022-07-29T05:09:14;99667.42;;;17.99;56.19
58785;BME280;44557;51.862;19.378;2022-07-29T05:10:15;99666.21;;;17.95;55.91
58785;BME280;44557;51.862;19.378;2022-07-29T05:11:17;99667.84;;;18.01;55.94
58785;BME280;44557;51.862;19.378;2022-07-29T05:12:18;99666.89;;;18.04;56.16
58785;BME280;44557;51.862;19.378;2022-07-29T05:13:20;99668.33;;;18.03;56.19
58785;BME280;44557;51.862;19.378;2022-07-29T05:14:21;99665.23;;;18.06;56.14
58785;BME280;44557;51.862;19.378;2022-07-29T05:15:23;99666.84;;;18.08;55.80
58785;BME280;44557;51.862;19.378;2022-07-29T05:16:24;99666.75;;;18.05;55.62
58785;BME280;44557;51.862;19.378;2022-07-29T05:17:26;99665.25;;;18.08;55.59
58785;BME280;44557;51.862;19.378;2022-07-29T05:18:27;99663.70;;;18.14;55.41
58785;BME280;44557;51.862;19.378;2022-07-29T05:19:29;99669.30;;;18.06;56.01
58785;BME280;44557;51.862;19.378;2022-07-29T05:20:31;99669.71;;;18.10;55.57
58785;BME280;44557;51.862;19.378;2022-07-29T05:21:34;99670.73;;;18.21;55.71
58785;BME280;44557;51.862;19.378;2022-07-29T05:22:36;99670.06;;;18.16;55.43
58785;BME280;44557;51.862;19.378;2022-07-29T05:23:37;99669.73;;;18.11;55.46
58785;BME280;44557;51.862;19.378;2022-07-29T05:24:39;99668.65;;;18.18;55.67
58785;BME280;44557;51.862;19.378;2022-07-29T05:25:41;99670.27;;;18.22;55.59
58785;BME280;44557;51.862;19.378;2022-07-29T05:26:42;99670.77;;;18.27;55.83
58785;BME280;44557;51.862;19.378;2022-07-29T05:27:44;99668.56;;;18.29;55.37
58785;BME280;44557;51.862;19.378;2022-07-29T05:28:46;99666.89;;;18.29;55.67
58785;BME280;44557;51.862;19.378;2022-07-29T05:29:48;99669.94;;;18.35;55.31
58785;BME280;44557;51.862;19.378;2022-07-29T05:30:49;99665.13;;;18.42;55.55
58785;BME280;44557;51.862;19.378;2022-07-29T05:31:51;99662.14;;;18.48;55.65
58785;BME280;44557;51.862;19.378;2022-07-29T05:32:54;99661.84;;;18.49;54.90
58785;BME280;44557;51.862;19.378;2022-07-29T05:33:55;99662.83;;;18.55;55.06
58785;BME280;44557;51.862;19.378;2022-07-29T05:34:57;99665.48;;;18.63;55.42
58785;BME280;44557;51.862;19.378;2022-07-29T05:35:58;99666.70;;;18.69;55.14
58785;BME280;44557;51.862;19.378;2022-07-29T05:37:00;99666.79;;;18.72;54.79
58785;BME280;44557;51.862;19.378;2022-07-29T05:38:01;99669.35;;;18.74;54.40
58785;BME280;44557;51.862;19.378;2022-07-29T05:39:03;99665.19;;;18.74;54.43
58785;BME280;44557;51.862;19.378;2022-07-29T05:40:05;99666.23;;;18.75;54.53
58785;BME280;44557;51.862;19.378;2022-07-29T05:41:08;99668.02;;;18.83;54.42
58785;BME280;44557;51.862;19.378;2022-07-29T05:42:09;99669.63;;;18.83;54.29
58785;BME280;44557;51.862;19.378;2022-07-29T05:43:11;99669.75;;;19.01;54.03
58785;BME280;44557;51.862;19.378;2022-07-29T05:44:13;99671.35;;;19.03;54.16
58785;BME280;44557;51.862;19.378;2022-07-29T05:45:15;99670.50;;;19.16;54.05